Nearby METAR Reports


RPLC - Angeles/Pampanga, Philippines
Distance from station: S 166km
Updated: Sun, 23-Feb-2020 12:00am PST
Partly cloudy
Partly cloudy
 Wind from NW
Wind: NW 7 km/h
Temperature: 23°C
Dew Point: 20°C
Humidity: 83%
Barometer: 1020 hPa
Clouds: Partly cloudy
Visibility: 10 km
Cloud details: Few Clouds 610 m
Partly cloudy 9144 m
2020/02/22 16:00 RPLC 221600Z 32004KT 9999 FEW020 SCT300 23/20 Q1020 NOSIG RMK A3012
RPLI - Laoag Intl Airport, Philippines
Distance from station: N 171km
Updated: Sat, 22-Feb-2020 11:00pm PST
Few Clouds
Few Clouds
 Wind from E
Wind: E 9 km/h
Temperature: 22°C
Dew Point: 11°C
Humidity: 50%
Barometer: 1020 hPa
Clouds: Few Clouds
Visibility: 10 km
Cloud details: Few Clouds 549 m
2020/02/22 15:00 RPLI 221500Z 08005KT 9999 FEW018 22/11 Q1020 NOSIG RMK A3012
 
RPLB - Olongapo/Subic, Philippines
Distance from station: S 205km
Updated: Sun, 23-Feb-2020 12:00am PST
Few Clouds
Few Clouds
 Wind from NE
Wind: NE 6 km/h
Temperature: 23°C
Dew Point: 18°C
Humidity: 74%
Barometer: 1019 hPa
Clouds: Few Clouds
Visibility: 10 km
Cloud details: Few Clouds 610 m
2020/02/22 16:00 RPLB 221600Z 05003KT 010V080 9999 FEW020 23/18 Q1019 NOSIG RMK A3009
RPLL - Ninoy Aquino Intl Airport, Philippines
Distance from station: SSE 247km
Updated: Sun, 23-Feb-2020 12:00am PST
Few Clouds
Few Clouds
 Wind from varies
Wind: varies 4 km/h
Temperature: 25°C
Dew Point: 18°C
Humidity: 65%
Barometer: 1018 hPa
Clouds: Few Clouds
Visibility: 10 km
Cloud details: Few Clouds 914 m
2020/02/22 16:00 RPLL 221600Z VRB02KT 9999 FEW030 25/18 Q1018 NOSIG RMK A3006